ADDS TAF Board (Experimental) INFO Settings
IDs: Format: Expanded Condensed

KIAD - Washington/Dulles In, VA, US

Issued at 1448 UTC 25 May 2015
Updated at: 1526 UTC 25 May 2015
Time1452Z 25/16Z 25/17Z 25/18Z 25/19Z 25/20Z 25/21Z 25/22Z 25/23Z 26/00Z 26/01Z 26/02Z 26/03Z 26/04Z
Type OBS PRVL PRVL PRVL PRVL PRVL PRVL PRVL PRVL PRVL PRVL PRVL PRVL PRVL
VIS 10 >6 >6 >6 >6 >6 >6 >6 >6 >6 >6 >6 >6 >6
CIG -- -- -- -- -- -- -- -- -- -- -- -- -- --
Cover FEW SCT SCT SCT SCT SCT SCT SCT SCT SCT SCT SCT SCT SCT
FltCat VFR VFR VFR VFR VFR VFR VFR VFR VFR VFR VFR VFR VFR VFR
WX -- -- -- -- -- -- -- -- -- -- -- -- -- --
WDir 210 200 200 200 200 200 200 200 200 180 180 180 180 180
WSpd 10 12 12 12 12 12 12 12 12 8 8 8 8 8
WGst 15 22 22 22 22 22 22 22 22 -- -- -- -- --
R01/19
XWnd 5 4 4 4 4 4 4 4 4 -0 -0 -0 -0 -0
XGst 7 7 7 7 7 7 7 7 7 -- -- -- -- --
HWnd -9 -11 -11 -11 -11 -11 -11 -11 -11 -8 -8 -8 -8 -8
HGst -13 -21 -21 -21 -21 -21 -21 -21 -21 -- -- -- -- --
R12/30
XWnd -10 -12 -12 -12 -12 -12 -12 -12 -12 -7 -7 -7 -7 -7
XGst -15 -22 -22 -22 -22 -22 -22 -22 -22 -- -- -- -- --
HWnd -2 0 0 0 0 0 0 0 0 3 3 3 3 3
HGst -2 0 0 0 0 0 0 0 0 -- -- -- -- --

NOTE: TEMPO conditions in [brackets]. Keep in mind TEMPO conditions might be better (lower impact) than prevailing conditions.

Raw TAF
KIAD 251448Z 2515/2618 20012G22KT P6SM FEW050 SCT200
  FM260000 18008KT P6SM SCT200
  FM261400 21008G16KT P6SM BKN050 BKN100


Raw METAR
KIAD 251452Z 21010G15KT 10SM FEW250 25/16 A3027 RMK AO2 SLP248 T02500156 58001
KIAD 251352Z 20006KT 10SM FEW250 23/15 A3027 RMK AO2 SLP249 T02280150
KIAD 251252Z 19008KT 10SM CLR 21/14 A3028 RMK AO2 SLP252 T02060144 $

METAR Board
Radar Display
Forecast Discussion

TAF Board Legend

Potential Impact
Threat None Slight Moderate High
Visibility (sm) ≥5.1 5.1>X≥3 3>X≥1 <1
Ceiling (100 ft) ≥30.1 30.1>X≥10 10>X≥5 <5
Wind Speed (kt) <10 10≤X<20 20≤X<30 ≥30
Wind Gust (kt) <15 15≤X<25 25≤X<35 ≥35
Weather No Wx Reported VCTS,-TS,-FZRA,SN TS,FZRA +TS,+FZRA,+SN